Terminal Aerodrome Forecast
Issued by NWS Spokane, WA

Home | Current Version | Previous Version | Text Only | Print | Product List | Glossary On
Versions: 1 2 3 4 5 6 7 8 9 10 11 12 13 14 15 16 17
000
FTUS46 KOTX 242338
TAFEAT
TAF
KEAT 242338Z 2500/2524 29013KT P6SM SKC
     FM250300 33005KT P6SM SCT200
     FM251400 31014G23KT P6SM BKN100
     FM251800 30020G28KT 3SM -SN OVC035=

USA.gov is the U.S. government's official web portal to all federal, state and local government web resources and services.